createdAt,value
2023-06-01T00:01:43.628Z,1.00
2023-06-01T00:04:10.529Z,1.00
2023-06-01T00:06:37.270Z,1.00
2023-06-01T00:09:04.029Z,1.00
2023-06-01T00:11:30.784Z,1.00
2023-06-01T00:13:58.012Z,1.00
2023-06-01T00:16:24.674Z,1.00
2023-06-01T00:18:53.727Z,1.00
2023-06-01T00:21:21.012Z,1.00
2023-06-01T00:23:47.732Z,1.00
2023-06-01T00:26:14.551Z,1.00
2023-06-01T00:28:41.320Z,1.00
2023-06-01T00:31:08.196Z,1.00
2023-06-01T00:33:34.948Z,1.00
2023-06-01T00:36:02.696Z,1.00
2023-06-01T00:38:29.433Z,1.00
2023-06-01T00:40:56.208Z,1.00
2023-06-01T00:43:22.975Z,1.00
2023-06-01T00:45:49.879Z,1.00
2023-06-01T00:48:18.088Z,1.00
2023-06-01T00:50:45.154Z,1.00
2023-06-01T00:53:19.893Z,1.00
2023-06-01T00:55:47.663Z,1.00
2023-06-01T00:58:15.186Z,1.00
2023-06-01T01:00:42.587Z,1.00
2023-06-01T01:03:10.494Z,1.00
2023-06-01T01:05:39.141Z,1.00
2023-06-01T01:08:37.405Z,1.00
2023-06-01T01:11:19.235Z,1.00
2023-06-01T01:13:51.616Z,1.00
2023-06-01T01:16:31.436Z,1.00
2023-06-01T01:19:33.371Z,1.00
2023-06-01T01:22:27.693Z,1.00
2023-06-01T01:25:13.468Z,1.00
2023-06-01T01:27:51.106Z,1.00
2023-06-01T01:30:22.740Z,1.00
2023-06-01T01:32:51.789Z,1.00
2023-06-01T01:35:19.613Z,1.00
2023-06-01T01:37:53.621Z,1.00
2023-06-01T01:40:21.564Z,1.00
2023-06-01T01:42:51.199Z,1.00
2023-06-01T01:45:20.636Z,1.00
2023-06-01T01:47:52.263Z,1.00
2023-06-01T01:50:22.445Z,1.00
2023-06-01T01:52:50.459Z,5.10
2023-06-01T01:55:19.644Z,41.30
2023-06-01T01:57:47.014Z,78.60
2023-06-01T02:00:14.957Z,53.10
2023-06-01T02:02:41.904Z,86.40
2023-06-01T02:05:09.013Z,92.30
2023-06-01T02:07:35.950Z,99.90
2023-06-01T02:10:02.872Z,99.90
2023-06-01T02:12:29.572Z,99.90
2023-06-01T02:14:56.545Z,99.90
2023-06-01T02:17:26.802Z,99.90
2023-06-01T02:19:53.483Z,99.90
2023-06-01T02:22:20.563Z,99.90
2023-06-01T02:24:48.448Z,99.90
2023-06-01T02:27:15.181Z,99.90
2023-06-01T02:29:41.926Z,99.90
2023-06-01T02:32:09.206Z,99.90
2023-06-01T02:34:37.520Z,99.90
2023-06-01T02:37:06.047Z,99.90
2023-06-01T02:39:32.730Z,99.90
2023-06-01T02:41:59.574Z,99.90
2023-06-01T02:44:26.319Z,99.90
2023-06-01T02:46:53.040Z,99.90
2023-06-01T02:49:19.782Z,99.90
2023-06-01T02:51:46.663Z,99.90
2023-06-01T02:54:13.578Z,99.90
2023-06-01T02:56:40.542Z,99.90
2023-06-01T02:59:07.402Z,99.90
2023-06-01T03:01:36.773Z,99.90
2023-06-01T03:04:08.340Z,99.90
2023-06-01T03:06:38.445Z,99.90
2023-06-01T03:09:06.221Z,99.90
2023-06-01T03:11:32.956Z,99.90
2023-06-01T03:13:59.613Z,99.90
2023-06-01T03:16:27.112Z,99.90
2023-06-01T03:18:54.068Z,99.90
2023-06-01T03:21:21.361Z,99.90
2023-06-01T03:23:48.081Z,1.00
2023-06-01T03:26:14.934Z,1.00
2023-06-01T03:28:41.780Z,1.00
2023-06-01T03:31:08.837Z,1.00
2023-06-01T03:33:35.993Z,1.00
2023-06-01T03:36:02.934Z,1.00
2023-06-01T03:38:29.615Z,1.00
2023-06-01T03:40:56.266Z,1.00
2023-06-01T03:43:23.154Z,1.00
2023-06-01T03:45:49.868Z,1.00
2023-06-01T03:48:16.640Z,1.00
2023-06-01T03:50:43.343Z,1.00
2023-06-01T03:53:10.160Z,1.00
2023-06-01T03:55:37.055Z,1.00
2023-06-01T03:58:05.877Z,1.00
2023-06-01T04:00:32.750Z,1.00
2023-06-01T04:03:03.309Z,1.00
2023-06-01T04:05:30.259Z,1.00
2023-06-01T04:07:57.042Z,1.00
2023-06-01T04:10:23.888Z,1.00
2023-06-01T04:12:51.804Z,1.00
2023-06-01T04:15:20.490Z,1.00
2023-06-01T04:17:47.822Z,1.00
2023-06-01T04:20:19.484Z,1.00
2023-06-01T04:22:47.245Z,1.00
2023-06-01T04:25:20.176Z,1.00
2023-06-01T04:27:49.439Z,1.00
2023-06-01T04:30:17.678Z,1.00
2023-06-01T04:32:46.948Z,1.00
2023-06-01T04:35:14.144Z,1.00
2023-06-01T04:37:42.138Z,1.00
2023-06-01T04:40:13.435Z,1.00
2023-06-01T04:42:52.698Z,1.00
2023-06-01T04:45:20.224Z,1.00
2023-06-01T04:47:47.815Z,1.00
2023-06-01T04:50:16.745Z,1.00
2023-06-01T04:52:44.433Z,1.00
2023-06-01T04:55:14.678Z,1.00
2023-06-01T04:57:44.081Z,1.00
2023-06-01T05:00:19.108Z,1.00
2023-06-01T05:02:48.838Z,1.00
2023-06-01T05:05:16.854Z,1.00
2023-06-01T05:07:44.021Z,1.00
2023-06-01T05:10:13.008Z,1.00
2023-06-01T05:12:39.926Z,1.00
2023-06-01T05:15:09.027Z,1.00
2023-06-01T05:17:36.255Z,1.00
2023-06-01T05:20:04.671Z,1.00
2023-06-01T05:22:31.448Z,1.00
2023-06-01T05:24:58.594Z,1.00
2023-06-01T05:27:25.425Z,99.90
2023-06-01T05:29:52.562Z,99.90
2023-06-01T05:32:19.396Z,99.90
2023-06-01T05:34:46.216Z,99.90
2023-06-01T05:37:12.988Z,99.90
2023-06-01T05:39:39.619Z,99.90
2023-06-01T05:42:07.143Z,99.90
2023-06-01T05:44:34.034Z,99.90
2023-06-01T05:47:00.721Z,99.90
2023-06-01T05:49:31.651Z,99.90
2023-06-01T05:51:59.392Z,99.90
2023-06-01T05:54:26.172Z,99.90
2023-06-01T05:56:53.046Z,99.90
2023-06-01T05:59:19.745Z,99.90
2023-06-01T06:01:46.578Z,93.10
2023-06-01T06:04:13.438Z,1.00
2023-06-01T06:06:40.906Z,1.00
2023-06-01T06:09:08.325Z,1.00
2023-06-01T06:11:35.196Z,1.00
2023-06-01T06:14:01.960Z,1.00
2023-06-01T06:16:28.737Z,1.00
2023-06-01T06:18:55.438Z,1.00
2023-06-01T06:21:22.298Z,1.00
2023-06-01T06:23:50.609Z,1.00
2023-06-01T06:26:17.474Z,1.00
2023-06-01T06:28:44.222Z,1.00
2023-06-01T06:31:10.955Z,1.00
2023-06-01T06:33:38.013Z,1.00
2023-06-01T06:36:04.894Z,1.00
2023-06-01T06:38:31.699Z,1.00
2023-06-01T06:40:58.713Z,1.00
2023-06-01T06:43:26.002Z,1.00
2023-06-01T06:45:52.794Z,1.00
2023-06-01T06:48:19.503Z,1.00
2023-06-01T06:50:46.273Z,1.00
2023-06-01T06:53:13.296Z,1.00
2023-06-01T06:55:40.044Z,1.00
2023-06-01T06:58:06.876Z,1.00
2023-06-01T07:00:33.688Z,1.00
2023-06-01T07:03:01.451Z,1.00
2023-06-01T07:05:28.562Z,1.00
2023-06-01T07:07:57.896Z,1.00
2023-06-01T07:10:25.753Z,1.00
2023-06-01T07:12:52.835Z,1.00
2023-06-01T07:15:19.831Z,1.00
2023-06-01T07:17:46.758Z,1.00
2023-06-01T07:20:13.705Z,1.00
2023-06-01T07:22:41.145Z,1.00
2023-06-01T07:25:08.463Z,1.00
2023-06-01T07:27:36.322Z,1.00
2023-06-01T07:30:07.406Z,1.00
2023-06-01T07:32:34.567Z,1.00
2023-06-01T07:35:02.816Z,1.00
2023-06-01T07:37:29.736Z,1.00
2023-06-01T07:39:56.612Z,1.00
2023-06-01T07:42:23.585Z,1.00
2023-06-01T07:44:50.366Z,1.00
2023-06-01T07:47:17.116Z,1.00
2023-06-01T07:49:44.344Z,1.00
2023-06-01T07:52:11.249Z,1.00
2023-06-01T07:54:38.282Z,1.00
2023-06-01T07:57:06.016Z,1.00
2023-06-01T07:59:33.071Z,1.00
2023-06-01T08:02:01.612Z,1.00
2023-06-01T08:04:35.130Z,1.00
2023-06-01T08:07:07.508Z,1.00
2023-06-01T08:09:34.942Z,1.00
2023-06-01T08:12:02.169Z,1.00
2023-06-01T08:14:29.095Z,1.00
2023-06-01T08:16:57.165Z,1.00
2023-06-01T08:19:23.952Z,1.00
2023-06-01T08:21:50.874Z,1.00
2023-06-01T08:24:18.508Z,1.00
2023-06-01T08:26:45.236Z,1.00
2023-06-01T08:29:12.590Z,1.00
2023-06-01T08:31:39.499Z,1.00
2023-06-01T08:34:06.656Z,1.00
2023-06-01T08:36:33.683Z,1.00
2023-06-01T08:39:00.515Z,1.00
2023-06-01T08:41:41.337Z,1.00
2023-06-01T08:44:11.394Z,1.00
2023-06-01T08:46:40.972Z,1.00
2023-06-01T08:49:12.151Z,1.00
2023-06-01T08:51:40.481Z,1.00
2023-06-01T08:54:10.630Z,1.00
2023-06-01T08:56:43.483Z,1.00
2023-06-01T08:59:12.584Z,1.00
2023-06-01T09:01:40.199Z,1.00
2023-06-01T09:04:07.284Z,1.00
2023-06-01T09:06:34.510Z,1.00
2023-06-01T09:09:01.446Z,1.00
2023-06-01T09:11:28.461Z,1.00
2023-06-01T09:13:55.384Z,1.00
2023-06-01T09:16:22.513Z,1.00
2023-06-01T09:18:54.580Z,1.00
2023-06-01T09:21:22.081Z,1.00
2023-06-01T09:23:49.005Z,1.00
2023-06-01T09:26:19.078Z,1.00
2023-06-01T09:29:01.903Z,1.00
2023-06-01T09:31:42.478Z,1.00
2023-06-01T09:34:19.724Z,1.00
2023-06-01T09:36:47.540Z,1.00
2023-06-01T09:39:16.437Z,1.00
2023-06-01T09:41:52.231Z,1.00
2023-06-01T09:44:28.920Z,1.00
2023-06-01T09:46:58.566Z,1.00
2023-06-01T09:49:33.716Z,1.00
2023-06-01T09:52:06.372Z,1.00
2023-06-01T09:54:42.591Z,1.00
2023-06-01T09:57:12.453Z,1.00
2023-06-01T09:59:45.308Z,1.00
2023-06-01T10:02:15.212Z,1.00
2023-06-01T10:04:59.884Z,1.00
2023-06-01T10:07:32.534Z,1.00
2023-06-01T10:10:03.628Z,1.00
2023-06-01T10:12:34.395Z,1.00
2023-06-01T10:15:05.523Z,1.00
2023-06-01T10:17:39.634Z,1.00
2023-06-01T10:20:07.508Z,1.00
2023-06-01T10:22:34.479Z,1.00
2023-06-01T10:25:01.999Z,1.00
2023-06-01T10:27:40.810Z,1.00
2023-06-01T10:30:10.566Z,1.00
2023-06-01T10:32:49.611Z,1.00
2023-06-01T10:35:34.615Z,1.00
2023-06-01T10:38:10.948Z,1.00
2023-06-01T10:40:38.498Z,1.00
2023-06-01T10:43:06.953Z,1.00
2023-06-01T10:45:41.531Z,1.00
2023-06-01T10:48:14.073Z,1.00
2023-06-01T10:50:42.678Z,1.00
2023-06-01T10:53:29.285Z,1.00
2023-06-01T10:56:25.226Z,1.00
2023-06-01T11:01:44.264Z,1.00
2023-06-01T11:04:11.762Z,1.00
2023-06-01T11:06:41.415Z,1.00
2023-06-01T11:09:11.357Z,1.00
2023-06-01T11:11:53.269Z,1.00
2023-06-01T11:14:22.656Z,1.00
2023-06-01T11:16:51.892Z,1.00
2023-06-01T11:19:25.848Z,1.00
2023-06-01T11:22:06.177Z,1.00
2023-06-01T11:24:36.354Z,1.00
2023-06-01T11:27:11.654Z,1.00
2023-06-01T11:29:38.840Z,1.00
2023-06-01T11:32:07.117Z,1.00
2023-06-01T11:34:40.250Z,1.00
2023-06-01T11:37:13.911Z,1.00
2023-06-01T11:39:41.733Z,1.00
2023-06-01T11:42:10.674Z,1.00
2023-06-01T11:44:43.018Z,1.00
2023-06-01T11:47:14.160Z,1.00
2023-06-01T11:49:46.194Z,1.00
2023-06-01T11:52:13.445Z,1.00
2023-06-01T11:54:40.821Z,1.00
2023-06-01T11:57:09.602Z,1.00
2023-06-01T11:59:47.111Z,1.00
2023-06-01T12:02:31.482Z,1.00
2023-06-01T12:05:08.215Z,1.00
2023-06-01T12:07:52.512Z,1.00
2023-06-01T12:10:21.367Z,1.00
2023-06-01T12:12:48.642Z,1.00
2023-06-01T12:15:19.854Z,1.00
2023-06-01T12:20:37.860Z,1.00
2023-06-01T12:23:22.473Z,1.00
2023-06-01T12:25:56.316Z,1.00
2023-06-01T12:28:24.821Z,1.00
2023-06-01T12:31:13.043Z,1.00
2023-06-01T12:33:41.040Z,1.00
2023-06-01T12:36:09.804Z,1.00
2023-06-01T12:38:37.496Z,1.00
2023-06-01T12:41:16.030Z,1.00
2023-06-01T12:43:50.859Z,1.00
2023-06-01T12:46:25.613Z,1.00
2023-06-01T12:48:55.265Z,1.00
2023-06-01T12:51:22.769Z,1.00
2023-06-01T12:53:49.652Z,1.00
2023-06-01T12:56:16.904Z,1.00
2023-06-01T12:58:43.977Z,1.00
2023-06-01T13:01:10.966Z,1.00
2023-06-01T13:03:38.015Z,1.00
2023-06-01T13:06:05.138Z,1.00
2023-06-01T13:08:32.239Z,1.00
2023-06-01T13:10:59.002Z,1.00
2023-06-01T13:13:25.846Z,1.00
2023-06-01T13:15:52.813Z,1.00
2023-06-01T13:18:19.663Z,1.00
2023-06-01T13:20:46.605Z,1.00
2023-06-01T13:23:13.961Z,1.00
2023-06-01T13:25:42.104Z,1.00
2023-06-01T13:28:09.463Z,1.00
2023-06-01T13:30:36.955Z,1.00
2023-06-01T13:33:04.235Z,1.00
2023-06-01T13:35:31.301Z,1.00
2023-06-01T13:37:58.196Z,1.00
2023-06-01T13:40:25.619Z,1.00
2023-06-01T13:42:53.586Z,1.00
2023-06-01T13:45:23.709Z,1.00
2023-06-01T13:47:51.723Z,1.00
2023-06-01T13:50:19.244Z,1.00
2023-06-01T13:52:47.163Z,1.00
2023-06-01T13:55:14.192Z,1.00
2023-06-01T13:57:42.190Z,1.00
2023-06-01T14:00:10.069Z,1.00
2023-06-01T14:02:37.201Z,1.00
2023-06-01T14:05:08.072Z,1.00
2023-06-01T14:07:36.735Z,1.00
2023-06-01T14:10:04.033Z,1.00
2023-06-01T14:12:31.304Z,1.00
2023-06-01T14:14:58.556Z,1.00
2023-06-01T14:17:25.523Z,1.00
2023-06-01T14:19:53.638Z,1.00
2023-06-01T14:22:20.750Z,1.00
2023-06-01T14:24:47.775Z,1.00
2023-06-01T14:27:14.755Z,1.00
2023-06-01T14:29:44.257Z,1.00
2023-06-01T14:32:11.543Z,1.00
2023-06-01T14:34:38.623Z,1.00
2023-06-01T14:37:08.216Z,1.00
2023-06-01T14:39:35.307Z,1.00
2023-06-01T14:42:02.318Z,1.00
2023-06-01T14:44:29.298Z,1.00
2023-06-01T14:46:58.292Z,1.00
2023-06-01T14:49:29.865Z,1.00
2023-06-01T14:52:02.395Z,1.00
2023-06-01T14:54:38.115Z,1.00
2023-06-01T14:57:05.344Z,1.00
2023-06-01T14:59:34.469Z,1.00
2023-06-01T15:02:02.879Z,1.00
2023-06-01T15:04:30.579Z,1.00
2023-06-01T15:06:57.497Z,1.00
2023-06-01T15:09:25.066Z,1.00
2023-06-01T15:11:51.995Z,1.00
2023-06-01T15:14:18.930Z,1.00
2023-06-01T15:16:46.113Z,1.00
2023-06-01T15:19:12.956Z,1.00
2023-06-01T15:21:40.388Z,1.00
2023-06-01T15:24:07.390Z,1.00
2023-06-01T15:26:34.403Z,1.00
2023-06-01T15:29:01.218Z,1.00
2023-06-01T15:31:28.239Z,1.00
2023-06-01T15:33:55.332Z,1.00
2023-06-01T15:36:22.157Z,1.00
2023-06-01T15:38:48.884Z,1.00
2023-06-01T15:41:16.122Z,1.00
2023-06-01T15:43:42.999Z,1.00
2023-06-01T15:46:09.911Z,1.00
2023-06-01T15:48:40.415Z,1.00
2023-06-01T15:51:08.395Z,1.00
2023-06-01T15:53:35.248Z,1.00
2023-06-01T15:56:02.223Z,1.00
2023-06-01T15:58:29.308Z,1.00
2023-06-01T16:01:11.287Z,1.00
2023-06-01T16:03:39.771Z,1.00
2023-06-01T16:06:06.738Z,1.00
2023-06-01T16:08:33.643Z,1.00
2023-06-01T16:11:00.896Z,1.00
2023-06-01T16:13:28.043Z,1.00
2023-06-01T16:15:55.102Z,1.00
2023-06-01T16:18:21.990Z,1.00
2023-06-01T16:20:48.997Z,1.00
2023-06-01T16:23:16.168Z,1.00
2023-06-01T16:25:42.867Z,1.00
2023-06-01T16:28:09.633Z,1.00
2023-06-01T16:30:36.283Z,1.00
2023-06-01T16:33:03.029Z,1.00
2023-06-01T16:35:30.339Z,1.00
2023-06-01T16:37:56.977Z,1.00
2023-06-01T16:40:23.735Z,1.00
2023-06-01T16:42:50.430Z,1.00
2023-06-01T16:45:17.208Z,1.00
2023-06-01T16:47:43.833Z,1.00
2023-06-01T16:50:11.014Z,1.00
2023-06-01T16:52:37.702Z,1.00
2023-06-01T16:55:04.912Z,1.00
2023-06-01T16:59:59.329Z,1.00
2023-06-01T17:02:28.512Z,1.00
2023-06-01T17:04:55.450Z,1.00
2023-06-01T17:07:22.174Z,1.00
2023-06-01T17:09:48.911Z,1.00
2023-06-01T17:12:18.580Z,1.00
2023-06-01T17:14:46.207Z,1.00
2023-06-01T17:17:14.504Z,1.00
2023-06-01T17:19:41.359Z,1.00
2023-06-01T17:22:08.265Z,1.00
2023-06-01T17:24:35.591Z,1.00
2023-06-01T17:27:48.482Z,1.00
2023-06-01T17:35:41.965Z,1.00
2023-06-01T17:49:57.750Z,1.00
2023-06-01T17:57:57.956Z,1.00
2023-06-01T18:00:58.042Z,1.00
2023-06-01T18:48:43.902Z,1.00
2023-06-01T18:58:44.680Z,1.00
2023-06-01T19:13:21.328Z,1.00
2023-06-01T19:23:51.748Z,1.00
2023-06-01T19:33:33.946Z,1.00
2023-06-01T19:40:31.032Z,1.00
2023-06-01T19:44:08.563Z,1.00
2023-06-01T19:46:35.874Z,1.00
2023-06-01T19:49:03.683Z,1.00
2023-06-01T19:51:32.864Z,1.00
2023-06-01T19:54:00.254Z,1.00
2023-06-01T19:56:42.118Z,1.00
2023-06-01T19:59:11.994Z,1.00
2023-06-01T20:01:40.096Z,1.00
2023-06-01T20:04:07.541Z,1.00
2023-06-01T20:06:40.305Z,1.00
2023-06-01T20:09:15.464Z,1.00
2023-06-01T20:11:50.650Z,1.00
2023-06-01T20:14:38.218Z,1.00
2023-06-01T20:17:05.155Z,1.00
2023-06-01T20:19:32.200Z,1.00
2023-06-01T20:22:00.038Z,1.00
2023-06-01T20:24:29.594Z,1.00
2023-06-01T20:27:01.486Z,1.00
2023-06-01T20:29:30.074Z,1.00
2023-06-01T20:31:58.817Z,1.00
2023-06-01T20:34:26.879Z,1.00
2023-06-01T20:36:54.119Z,1.00
2023-06-01T20:39:25.215Z,1.00
2023-06-01T20:41:56.149Z,1.00
2023-06-01T20:44:23.276Z,1.00
2023-06-01T20:46:51.171Z,1.00
2023-06-01T20:49:18.760Z,1.00
2023-06-01T20:51:46.642Z,1.00
2023-06-01T20:54:16.728Z,1.00
2023-06-01T20:56:47.866Z,1.00
2023-06-01T20:59:19.822Z,1.00
2023-06-01T21:01:52.352Z,1.00
2023-06-01T21:04:21.813Z,1.00
2023-06-01T21:06:48.725Z,1.00
2023-06-01T21:09:15.760Z,1.00
2023-06-01T21:11:48.292Z,1.00
2023-06-01T21:14:16.436Z,1.00
2023-06-01T21:16:43.585Z,1.00
2023-06-01T21:19:10.937Z,1.00
2023-06-01T21:21:44.129Z,1.00
2023-06-01T21:24:12.867Z,1.00
2023-06-01T21:26:40.673Z,1.00
2023-06-01T21:29:09.970Z,1.00
2023-06-01T21:31:37.845Z,1.00
2023-06-01T21:34:04.806Z,1.00
2023-06-01T21:36:31.502Z,1.00
2023-06-01T21:38:58.287Z,1.00
2023-06-01T21:41:24.993Z,1.00
2023-06-01T21:43:51.703Z,1.00
2023-06-01T21:46:18.557Z,1.00
2023-06-01T21:48:45.536Z,1.00
2023-06-01T21:51:12.395Z,1.00
2023-06-01T21:53:39.305Z,1.00
2023-06-01T21:56:06.430Z,1.00
2023-06-01T21:58:38.857Z,1.00
2023-06-01T22:01:06.942Z,1.00
2023-06-01T22:03:34.116Z,1.00
2023-06-01T22:06:01.330Z,1.00
2023-06-01T22:08:28.178Z,1.00
2023-06-01T22:10:55.466Z,1.00
2023-06-01T22:13:22.130Z,1.00
2023-06-01T22:15:48.812Z,1.00
2023-06-01T22:18:15.644Z,1.00
2023-06-01T22:20:42.316Z,1.00
2023-06-01T22:23:10.427Z,1.00
2023-06-01T22:25:38.730Z,1.00
2023-06-01T22:28:06.329Z,1.00
2023-06-01T22:30:33.402Z,1.00
2023-06-01T22:33:00.441Z,1.00
2023-06-01T22:35:27.244Z,1.00
2023-06-01T22:37:54.005Z,1.00
2023-06-01T22:40:20.729Z,1.00
2023-06-01T22:42:47.582Z,1.00
2023-06-01T22:45:14.416Z,15.30
2023-06-01T22:47:41.306Z,11.40
2023-06-01T22:50:08.730Z,35.00
2023-06-01T22:52:35.548Z,55.60
2023-06-01T22:55:06.862Z,80.60
2023-06-01T22:57:34.501Z,62.50
2023-06-01T23:00:01.285Z,99.80
2023-06-01T23:02:28.092Z,99.90
2023-06-01T23:04:54.959Z,99.90
2023-06-01T23:07:22.546Z,99.90
2023-06-01T23:09:50.139Z,99.90
2023-06-01T23:12:16.995Z,99.90
2023-06-01T23:14:43.801Z,99.90
2023-06-01T23:17:14.721Z,99.90
2023-06-01T23:19:43.583Z,99.90
2023-06-01T23:22:13.207Z,99.90
2023-06-01T23:24:41.010Z,99.90
2023-06-01T23:27:08.666Z,99.90
2023-06-01T23:29:36.000Z,99.90
2023-06-01T23:32:02.994Z,99.90
2023-06-01T23:34:29.826Z,99.90
2023-06-01T23:36:56.756Z,99.90
2023-06-01T23:39:24.049Z,99.90
2023-06-01T23:41:51.575Z,99.90
2023-06-01T23:44:18.853Z,99.90
2023-06-01T23:46:47.238Z,99.90
2023-06-01T23:49:14.625Z,99.90
2023-06-01T23:51:41.636Z,99.90
2023-06-01T23:54:08.714Z,99.90
2023-06-01T23:56:35.625Z,99.90
2023-06-01T23:59:02.523Z,99.90
